Marten — 5BNU3 — position and weather

sailwx.info

Track history (hours):
 
Tides and Currents Weather Stations Pressure Air Temp Water Temp Dewpoint Dewpoint Depression Visibility Wind Speed Wind Dir Waves Ship Positions

Marten

Last reported at 2016-Apr-29 09:23 UTC. Time now 2016-Apr-29 10:05 UTC.
Position N 53°33' E 004°58'.

Length 90 m; draft 5.3 m.

Type: Ship. MMSI: 212376000.

Date/timePositionNaut miles runAvg speedWind from/ knotsBaromVisibWave heightAir tempDewpointWater temp
2016-Apr-29 09:23N 53°33' E 004°58'6 7.5
2016-Apr-29 08:33N 53°35' E 005°08'8 8.3
2016-Apr-29 07:33N 53°38' E 005°22'9 9.3
2016-Apr-29 06:33N 53°41' E 005°36'10 9.6
2016-Apr-29 05:33N 53°44' E 005°52'10 9.7
2016-Apr-29 04:33N 53°46' E 006°08'1010.2
2016-Apr-29 03:33N 53°50' E 006°24'1010.0
2016-Apr-29 02:33N 53°52' E 006°40'10 9.6
2016-Apr-29 01:33N 53°54' E 006°56'9 9.3
2016-Apr-29 00:33N 53°56' E 007°11'9 9.0
2016-Apr-28 23:33N 53°58' E 007°26'9 8.5
2016-Apr-28 22:33N 53°58' E 007°41'9 9.0
2016-Apr-28 21:33N 53°52' E 007°53'1010.4
2016-Apr-28 20:33N 53°48' E 008°09'1313.0
2016-Apr-28 19:34N 53°39' E 008°25'9 9.4
2016-Apr-28 18:33N 53°30' E 008°31'1110.5
2016-Apr-28 17:33N 53°20' E 008°30'8 8.2
2016-Apr-28 16:33N 53°12' E 008°31'7 6.7
2016-Apr-28 15:33N 53°08' E 008°40'2 2.0
2016-Apr-28 14:33N 53°07' E 008°43'0 0.2
2016-Apr-28 13:33N 53°07' E 008°43'0 0.0
2016-Apr-28 12:33N 53°07' E 008°43'0 0.0
2016-Apr-28 11:33N 53°07' E 008°43'0 0.0
2016-Apr-28 10:33N 53°07' E 008°43'0 0.0
2016-Apr-28 09:33N 53°07' E 008°43'0 0.0
2016-Apr-28 08:33N 53°07' E 008°43'0 0.0
2016-Apr-28 07:33N 53°07' E 008°43'0 0.0
2016-Apr-28 06:33N 53°07' E 008°43'0 0.0
2016-Apr-28 05:33N 53°07' E 008°43'0 0.0
2016-Apr-28 04:33N 53°07' E 008°43'0 0.0
2016-Apr-28 03:33N 53°07' E 008°43'0 0.0
2016-Apr-28 02:33N 53°07' E 008°43'0 0.0
2016-Apr-28 01:33N 53°07' E 008°43'0 0.0
2016-Apr-28 00:33N 53°07' E 008°43'0 0.0
2016-Apr-27 23:33N 53°07' E 008°43'0 0.0
2016-Apr-27 22:33N 53°07' E 008°43'0 0.0
2016-Apr-27 21:33N 53°07' E 008°43'0 0.0
2016-Apr-27 20:33N 53°07' E 008°43'0 0.0
2016-Apr-27 19:33N 53°07' E 008°43'0 0.0
2016-Apr-27 18:33N 53°07' E 008°43'0 0.0
2016-Apr-27 17:33N 53°07' E 008°43'0 0.0
2016-Apr-27 16:33N 53°07' E 008°43'0 0.0
2016-Apr-27 15:33N 53°07' E 008°43'0 0.0
2016-Apr-27 14:33N 53°07' E 008°43'0 0.0
2016-Apr-27 13:33N 53°07' E 008°43'0 0.0
2016-Apr-27 12:33N 53°07' E 008°43'0 0.0
2016-Apr-27 11:33N 53°07' E 008°43'0 0.0
2016-Apr-27 10:33N 53°07' E 008°43'0 0.1
2016-Apr-27 09:33N 53°08' E 008°43'0 0.4
2016-Apr-27 08:33N 53°07' E 008°43'0 0.0
2016-Apr-27 07:33N 53°07' E 008°43'0 0.0
2016-Apr-27 06:33N 53°07' E 008°43'0 0.0
2016-Apr-27 05:33N 53°07' E 008°43'0 0.0
2016-Apr-27 04:33N 53°07' E 008°43'0 0.0
2016-Apr-27 03:33N 53°07' E 008°43'0 0.0
2016-Apr-27 02:33N 53°07' E 008°43'0 0.0
2016-Apr-27 01:33N 53°07' E 008°43'0 0.0
2016-Apr-27 00:33N 53°07' E 008°43'0 0.0
2016-Apr-26 23:33N 53°07' E 008°43'0 0.0
2016-Apr-26 22:33N 53°07' E 008°43'0 0.0
2016-Apr-26 21:33N 53°07' E 008°43'0 0.0
2016-Apr-26 20:33N 53°07' E 008°43'0 0.0
2016-Apr-26 19:33N 53°07' E 008°43'0 0.0
2016-Apr-26 18:33N 53°07' E 008°43'0 0.0
2016-Apr-26 17:33N 53°07' E 008°43'0 0.0
2016-Apr-26 16:33N 53°07' E 008°43'0 0.0
2016-Apr-26 15:33N 53°07' E 008°43'0 0.0
2016-Apr-26 14:33N 53°07' E 008°43'0 0.0
2016-Apr-26 13:33N 53°07' E 008°43'0 0.0
2016-Apr-26 12:33N 53°07' E 008°43'0 0.0
2016-Apr-26 11:33N 53°07' E 008°43'0 0.0
2016-Apr-26 10:33N 53°07' E 008°43'0 0.0
2016-Apr-26 09:33N 53°07' E 008°43'0 0.0
2016-Apr-26 08:33N 53°07' E 008°43'0 0.0
2016-Apr-26 07:33N 53°07' E 008°43'0 0.0
2016-Apr-26 06:33N 53°07' E 008°43'0 0.0
2016-Apr-26 05:33N 53°07' E 008°43'0 0.0
2016-Apr-26 04:33N 53°07' E 008°43'0 0.0
2016-Apr-26 03:33N 53°07' E 008°43'0 0.0
2016-Apr-26 02:33N 53°07' E 008°43'0 0.0
2016-Apr-26 01:33N 53°07' E 008°43'0 0.0
2016-Apr-26 00:33N 53°07' E 008°43'0 0.0
2016-Apr-25 23:33N 53°07' E 008°43'0 0.0
2016-Apr-25 22:33N 53°07' E 008°43'0 0.0
2016-Apr-25 21:33N 53°07' E 008°43'0 0.0
2016-Apr-25 20:33N 53°07' E 008°43'0 0.0
2016-Apr-25 19:33N 53°07' E 008°43'0 0.0
2016-Apr-25 18:33N 53°07' E 008°43'0 0.0
2016-Apr-25 17:33N 53°07' E 008°43'0 0.5
2016-Apr-25 16:33N 53°07' E 008°43'1 0.9
2016-Apr-25 15:34N 53°07' E 008°41'3 3.0
2016-Apr-25 14:33N 53°09' E 008°38'7 6.8
2016-Apr-25 13:33N 53°14' E 008°29'6 6.5
2016-Apr-25 12:33N 53°20' E 008°30'0 0.0
2016-Apr-25 11:31N 53°20' E 008°30'0 0.0
2016-Apr-25 10:31N 53°20' E 008°30'0 0.0
2016-Apr-25 09:31N 53°20' E 008°30'0 0.0
2016-Apr-25 08:31N 53°20' E 008°30'0 0.0
2016-Apr-25 07:31N 53°20' E 008°30'0 0.0
2016-Apr-25 06:31N 53°20' E 008°30'0 0.0
2016-Apr-25 05:28N 53°20' E 008°30'0 0.0
2016-Apr-25 04:31N 53°20' E 008°30'0 0.0
2016-Apr-25 03:31N 53°20' E 008°30'0 0.0
2016-Apr-25 02:31N 53°20' E 008°30'0 0.0
2016-Apr-25 01:31N 53°20' E 008°30'0 0.0
2016-Apr-25 00:31N 53°20' E 008°30'0 0.0
2016-Apr-24 23:31N 53°20' E 008°30'0 0.0
2016-Apr-24 22:31N 53°20' E 008°30'0 0.0
2016-Apr-24 21:31N 53°20' E 008°30'0 0.0
2016-Apr-24 20:31N 53°20' E 008°30'0 0.0
2016-Apr-24 19:31N 53°20' E 008°30'0 0.0
2016-Apr-24 18:31N 53°20' E 008°30'0 0.0
2016-Apr-24 17:31N 53°20' E 008°30'0 0.0
2016-Apr-24 16:31N 53°20' E 008°30'0 0.0
2016-Apr-24 15:31N 53°20' E 008°30'0 0.0
2016-Apr-24 14:31N 53°20' E 008°30'0 0.0
2016-Apr-24 13:31N 53°20' E 008°30'0 0.0
2016-Apr-24 12:31N 53°20' E 008°30'0 0.0
2016-Apr-24 11:31N 53°20' E 008°30'0 0.0
2016-Apr-24 10:31N 53°20' E 008°30'0 0.0
2016-Apr-24 09:31N 53°20' E 008°30'0 0.0
2016-Apr-24 08:31N 53°20' E 008°30'0 0.0
2016-Apr-24 07:31N 53°20' E 008°30'0 0.0
2016-Apr-24 06:31N 53°20' E 008°30'0 0.0
2016-Apr-24 05:31N 53°20' E 008°30'0 0.0
2016-Apr-24 04:31N 53°20' E 008°30'0 0.0
2016-Apr-24 03:28N 53°20' E 008°30'0 0.0
2016-Apr-24 02:31N 53°20' E 008°30'0 0.0
2016-Apr-24 01:31N 53°20' E 008°30'0 0.0
2016-Apr-23 23:31N 53°20' E 008°30'0 0.0
2016-Apr-23 22:34N 53°20' E 008°30'7 7.4
2016-Apr-23 21:33N 53°28' E 008°30'9 8.9
2016-Apr-23 20:33N 53°37' E 008°30'10 9.9
2016-Apr-23 19:33N 53°43' E 008°17'9 9.2
2016-Apr-23 18:33N 53°49' E 008°06'9 8.9
2016-Apr-23 17:33N 53°52' E 007°51'9 8.7
2016-Apr-23 16:33N 53°53' E 007°37'9 8.6
2016-Apr-23 15:34N 53°52' E 007°22'9 8.7
2016-Apr-23 14:33N 53°50' E 007°08'9 9.0
2016-Apr-23 13:33N 53°48' E 006°53'9 9.3
2016-Apr-23 12:33N 53°46' E 006°38'10 9.5
2016-Apr-23 11:33N 53°44' E 006°22'10 9.9
2016-Apr-23 10:33N 53°41' E 006°06'1010.2
2016-Apr-23 09:33N 53°38' E 005°50'1110.5
2016-Apr-23 08:33N 53°34' E 005°33'1110.9
2016-Apr-23 07:33N 53°31' E 005°15'4310.3
2016-Apr-23 03:23N 53°01' E 004°24'8 9.7
2016-Apr-23 02:33N 52°54' E 004°17'20 9.1
2016-Apr-23 00:25N 52°38' E 003°59'50 8.3
2016-Apr-22 18:25N 52°03' E 003°00'8 9.5
2016-Apr-22 17:33N 51°57' E 002°51'2710.7
2016-Apr-22 15:04N 51°37' E 002°24'811.7
2016-Apr-22 14:23N 51°30' E 002°16'1111.7
2016-Apr-22 13:28N 51°20' E 002°09'1011.6
2016-Apr-22 12:33N 51°12' E 001°60'1212.2
2016-Apr-22 11:33N 51°04' E 001°45'1312.1
2016-Apr-22 10:27N 50°55' E 001°30'61 8.9
2016-Apr-22 03:32N 50°19' E 000°10'8 8.1
2016-Apr-22 02:33N 50°17' W 000°02'8 7.9
2016-Apr-22 01:32N 50°15' W 000°14'8 7.8
2016-Apr-22 00:31N 50°13' W 000°26'8 8.4
2016-Apr-21 23:33N 50°11' W 000°38'10 9.8
2016-Apr-21 22:32N 50°08' W 000°53'1211.5
2016-Apr-21 21:28N 50°05' W 001°11'1212.8
2016-Apr-21 20:33N 50°02' W 001°29'1413.9
2016-Apr-21 19:32N 49°58' W 001°50'2712.8
2016-Apr-21 17:27N 49°51' W 002°30'2910.2
2016-Apr-21 14:34N 49°41' W 003°13'87 8.7
2016-Apr-21 04:32N 48°57' W 005°08'1010.2
2016-Apr-21 03:33N 48°52' W 005°21'1010.1
2016-Apr-21 02:33N 48°47' W 005°34'1210.0
2016-Apr-21 01:20N 48°37' W 005°44'  
Track history (hours):
 
Tides and Currents Weather Stations Pressure Air Temp Water Temp Dewpoint Dewpoint Depression Visibility Wind Speed Wind Dir Waves Ship Positions

Marten

Last reported at 2016-Apr-29 09:23 UTC. Time now 2016-Apr-29 10:05 UTC.
Position N 53°33' E 004°58'.

Length 90 m; draft 5.3 m.

Type: Ship. MMSI: 212376000.

Date/timePositionNaut miles runAvg speedWind from/ knotsBaromVisibWave heightAir tempDewpointWater temp
2016-Apr-29 09:23N 53°33' E 004°58'6 7.5
2016-Apr-29 08:33N 53°35' E 005°08'8 8.3
2016-Apr-29 07:33N 53°38' E 005°22'9 9.3
2016-Apr-29 06:33N 53°41' E 005°36'10 9.6
2016-Apr-29 05:33N 53°44' E 005°52'10 9.7
2016-Apr-29 04:33N 53°46' E 006°08'1010.2
2016-Apr-29 03:33N 53°50' E 006°24'1010.0
2016-Apr-29 02:33N 53°52' E 006°40'10 9.6
2016-Apr-29 01:33N 53°54' E 006°56'9 9.3
2016-Apr-29 00:33N 53°56' E 007°11'9 9.0
2016-Apr-28 23:33N 53°58' E 007°26'9 8.5
2016-Apr-28 22:33N 53°58' E 007°41'9 9.0
2016-Apr-28 21:33N 53°52' E 007°53'1010.4
2016-Apr-28 20:33N 53°48' E 008°09'1313.0
2016-Apr-28 19:34N 53°39' E 008°25'9 9.4
2016-Apr-28 18:33N 53°30' E 008°31'1110.5
2016-Apr-28 17:33N 53°20' E 008°30'8 8.2
2016-Apr-28 16:33N 53°12' E 008°31'7 6.7
2016-Apr-28 15:33N 53°08' E 008°40'2 2.0
2016-Apr-28 14:33N 53°07' E 008°43'0 0.2
2016-Apr-28 13:33N 53°07' E 008°43'0 0.0
2016-Apr-28 12:33N 53°07' E 008°43'0 0.0
2016-Apr-28 11:33N 53°07' E 008°43'0 0.0
2016-Apr-28 10:33N 53°07' E 008°43'0 0.0
2016-Apr-28 09:33N 53°07' E 008°43'0 0.0
2016-Apr-28 08:33N 53°07' E 008°43'0 0.0
2016-Apr-28 07:33N 53°07' E 008°43'0 0.0
2016-Apr-28 06:33N 53°07' E 008°43'0 0.0
2016-Apr-28 05:33N 53°07' E 008°43'0 0.0
2016-Apr-28 04:33N 53°07' E 008°43'0 0.0
2016-Apr-28 03:33N 53°07' E 008°43'0 0.0
2016-Apr-28 02:33N 53°07' E 008°43'0 0.0
2016-Apr-28 01:33N 53°07' E 008°43'0 0.0
2016-Apr-28 00:33N 53°07' E 008°43'0 0.0
2016-Apr-27 23:33N 53°07' E 008°43'0 0.0
2016-Apr-27 22:33N 53°07' E 008°43'0 0.0
2016-Apr-27 21:33N 53°07' E 008°43'0 0.0
2016-Apr-27 20:33N 53°07' E 008°43'0 0.0
2016-Apr-27 19:33N 53°07' E 008°43'0 0.0
2016-Apr-27 18:33N 53°07' E 008°43'0 0.0
2016-Apr-27 17:33N 53°07' E 008°43'0 0.0
2016-Apr-27 16:33N 53°07' E 008°43'0 0.0
2016-Apr-27 15:33N 53°07' E 008°43'0 0.0
2016-Apr-27 14:33N 53°07' E 008°43'0 0.0
2016-Apr-27 13:33N 53°07' E 008°43'0 0.0
2016-Apr-27 12:33N 53°07' E 008°43'0 0.0
2016-Apr-27 11:33N 53°07' E 008°43'0 0.0
2016-Apr-27 10:33N 53°07' E 008°43'0 0.1
2016-Apr-27 09:33N 53°08' E 008°43'0 0.4
2016-Apr-27 08:33N 53°07' E 008°43'0 0.0
2016-Apr-27 07:33N 53°07' E 008°43'0 0.0
2016-Apr-27 06:33N 53°07' E 008°43'0 0.0
2016-Apr-27 05:33N 53°07' E 008°43'0 0.0
2016-Apr-27 04:33N 53°07' E 008°43'0 0.0
2016-Apr-27 03:33N 53°07' E 008°43'0 0.0
2016-Apr-27 02:33N 53°07' E 008°43'0 0.0
2016-Apr-27 01:33N 53°07' E 008°43'0 0.0
2016-Apr-27 00:33N 53°07' E 008°43'0 0.0
2016-Apr-26 23:33N 53°07' E 008°43'0 0.0
2016-Apr-26 22:33N 53°07' E 008°43'0 0.0
2016-Apr-26 21:33N 53°07' E 008°43'0 0.0
2016-Apr-26 20:33N 53°07' E 008°43'0 0.0
2016-Apr-26 19:33N 53°07' E 008°43'0 0.0
2016-Apr-26 18:33N 53°07' E 008°43'0 0.0
2016-Apr-26 17:33N 53°07' E 008°43'0 0.0
2016-Apr-26 16:33N 53°07' E 008°43'0 0.0
2016-Apr-26 15:33N 53°07' E 008°43'0 0.0
2016-Apr-26 14:33N 53°07' E 008°43'0 0.0
2016-Apr-26 13:33N 53°07' E 008°43'0 0.0
2016-Apr-26 12:33N 53°07' E 008°43'0 0.0
2016-Apr-26 11:33N 53°07' E 008°43'0 0.0
2016-Apr-26 10:33N 53°07' E 008°43'0 0.0
2016-Apr-26 09:33N 53°07' E 008°43'0 0.0
2016-Apr-26 08:33N 53°07' E 008°43'0 0.0
2016-Apr-26 07:33N 53°07' E 008°43'0 0.0
2016-Apr-26 06:33N 53°07' E 008°43'0 0.0
2016-Apr-26 05:33N 53°07' E 008°43'0 0.0
2016-Apr-26 04:33N 53°07' E 008°43'0 0.0
2016-Apr-26 03:33N 53°07' E 008°43'0 0.0
2016-Apr-26 02:33N 53°07' E 008°43'0 0.0
2016-Apr-26 01:33N 53°07' E 008°43'0 0.0
2016-Apr-26 00:33N 53°07' E 008°43'0 0.0
2016-Apr-25 23:33N 53°07' E 008°43'0 0.0
2016-Apr-25 22:33N 53°07' E 008°43'0 0.0
2016-Apr-25 21:33N 53°07' E 008°43'0 0.0
2016-Apr-25 20:33N 53°07' E 008°43'0 0.0
2016-Apr-25 19:33N 53°07' E 008°43'0 0.0
2016-Apr-25 18:33N 53°07' E 008°43'0 0.0
2016-Apr-25 17:33N 53°07' E 008°43'0 0.5
2016-Apr-25 16:33N 53°07' E 008°43'1 0.9
2016-Apr-25 15:34N 53°07' E 008°41'3 3.0
2016-Apr-25 14:33N 53°09' E 008°38'7 6.8
2016-Apr-25 13:33N 53°14' E 008°29'6 6.5
2016-Apr-25 12:33N 53°20' E 008°30'0 0.0
2016-Apr-25 11:31N 53°20' E 008°30'0 0.0
2016-Apr-25 10:31N 53°20' E 008°30'0 0.0
2016-Apr-25 09:31N 53°20' E 008°30'0 0.0
2016-Apr-25 08:31N 53°20' E 008°30'0 0.0
2016-Apr-25 07:31N 53°20' E 008°30'0 0.0
2016-Apr-25 06:31N 53°20' E 008°30'0 0.0
2016-Apr-25 05:28N 53°20' E 008°30'0 0.0
2016-Apr-25 04:31N 53°20' E 008°30'0 0.0
2016-Apr-25 03:31N 53°20' E 008°30'0 0.0
2016-Apr-25 02:31N 53°20' E 008°30'0 0.0
2016-Apr-25 01:31N 53°20' E 008°30'0 0.0
2016-Apr-25 00:31N 53°20' E 008°30'0 0.0
2016-Apr-24 23:31N 53°20' E 008°30'0 0.0
2016-Apr-24 22:31N 53°20' E 008°30'0 0.0
2016-Apr-24 21:31N 53°20' E 008°30'0 0.0
2016-Apr-24 20:31N 53°20' E 008°30'0 0.0
2016-Apr-24 19:31N 53°20' E 008°30'0 0.0
2016-Apr-24 18:31N 53°20' E 008°30'0 0.0
2016-Apr-24 17:31N 53°20' E 008°30'0 0.0
2016-Apr-24 16:31N 53°20' E 008°30'0 0.0
2016-Apr-24 15:31N 53°20' E 008°30'0 0.0
2016-Apr-24 14:31N 53°20' E 008°30'0 0.0
2016-Apr-24 13:31N 53°20' E 008°30'0 0.0
2016-Apr-24 12:31N 53°20' E 008°30'0 0.0
2016-Apr-24 11:31N 53°20' E 008°30'0 0.0
2016-Apr-24 10:31N 53°20' E 008°30'0 0.0
2016-Apr-24 09:31N 53°20' E 008°30'0 0.0
2016-Apr-24 08:31N 53°20' E 008°30'0 0.0
2016-Apr-24 07:31N 53°20' E 008°30'0 0.0
2016-Apr-24 06:31N 53°20' E 008°30'0 0.0
2016-Apr-24 05:31N 53°20' E 008°30'0 0.0
2016-Apr-24 04:31N 53°20' E 008°30'0 0.0
2016-Apr-24 03:28N 53°20' E 008°30'0 0.0
2016-Apr-24 02:31N 53°20' E 008°30'0 0.0
2016-Apr-24 01:31N 53°20' E 008°30'0 0.0
2016-Apr-23 23:31N 53°20' E 008°30'0 0.0
2016-Apr-23 22:34N 53°20' E 008°30'7 7.4
2016-Apr-23 21:33N 53°28' E 008°30'9 8.9
2016-Apr-23 20:33N 53°37' E 008°30'10 9.9
2016-Apr-23 19:33N 53°43' E 008°17'9 9.2
2016-Apr-23 18:33N 53°49' E 008°06'9 8.9
2016-Apr-23 17:33N 53°52' E 007°51'9 8.7
2016-Apr-23 16:33N 53°53' E 007°37'9 8.6
2016-Apr-23 15:34N 53°52' E 007°22'9 8.7
2016-Apr-23 14:33N 53°50' E 007°08'9 9.0
2016-Apr-23 13:33N 53°48' E 006°53'9 9.3
2016-Apr-23 12:33N 53°46' E 006°38'10 9.5
2016-Apr-23 11:33N 53°44' E 006°22'10 9.9
2016-Apr-23 10:33N 53°41' E 006°06'1010.2
2016-Apr-23 09:33N 53°38' E 005°50'1110.5
2016-Apr-23 08:33N 53°34' E 005°33'1110.9
2016-Apr-23 07:33N 53°31' E 005°15'4310.3
2016-Apr-23 03:23N 53°01' E 004°24'8 9.7
2016-Apr-23 02:33N 52°54' E 004°17'20 9.1
2016-Apr-23 00:25N 52°38' E 003°59'50 8.3
2016-Apr-22 18:25N 52°03' E 003°00'8 9.5
2016-Apr-22 17:33N 51°57' E 002°51'2710.7
2016-Apr-22 15:04N 51°37' E 002°24'811.7
2016-Apr-22 14:23N 51°30' E 002°16'1111.7
2016-Apr-22 13:28N 51°20' E 002°09'1011.6
2016-Apr-22 12:33N 51°12' E 001°60'1212.2
2016-Apr-22 11:33N 51°04' E 001°45'1312.1
2016-Apr-22 10:27N 50°55' E 001°30'61 8.9
2016-Apr-22 03:32N 50°19' E 000°10'8 8.1
2016-Apr-22 02:33N 50°17' W 000°02'8 7.9
2016-Apr-22 01:32N 50°15' W 000°14'8 7.8
2016-Apr-22 00:31N 50°13' W 000°26'8 8.4
2016-Apr-21 23:33N 50°11' W 000°38'10 9.8
2016-Apr-21 22:32N 50°08' W 000°53'1211.5
2016-Apr-21 21:28N 50°05' W 001°11'1212.8
2016-Apr-21 20:33N 50°02' W 001°29'1413.9
2016-Apr-21 19:32N 49°58' W 001°50'2712.8
2016-Apr-21 17:27N 49°51' W 002°30'2910.2
2016-Apr-21 14:34N 49°41' W 003°13'87 8.7
2016-Apr-21 04:32N 48°57' W 005°08'1010.2
2016-Apr-21 03:33N 48°52' W 005°21'1010.1
2016-Apr-21 02:33N 48°47' W 005°34'1210.0
2016-Apr-21 01:20N 48°37' W 005°44'  

Dump ship's entire track history